Time;durP1;ratioP1;P1;durP2;ratioP2;P2;SDS_P1;SDS_P2;PMS_P1;PMS_P2;Temp;Humidity;BMP_temperature;BMP_pressure;BME280_temperature;BME280_humidity;BME280_pressure;Samples;Min_cycle;Max_cycle;Signal;HPM_P1;HPM_P2
2023/12/21 05:46:08;;;;;;;7.03;1.92;;;;;;;9.41;100.00;99633.97;5847652;24;20841;31
2023/12/21 05:48:33;;;;;;;8.32;1.83;;;;;;;9.42;100.00;99616.00;4763813;29;20059;-74
2023/12/21 05:50:59;;;;;;;5.05;2.55;;;;;;;9.41;100.00;99619.22;4771625;29;20104;-74
2023/12/21 05:53:24;;;;;;;6.32;2.03;;;;;;;9.42;100.00;99607.63;4772474;29;20063;-74
2023/12/21 05:55:50;;;;;;;5.60;1.95;;;;;;;9.43;100.00;99619.63;4781584;29;20062;-74
2023/12/21 05:58:15;;;;;;;6.50;1.92;;;;;;;9.38;100.00;99604.03;4760841;30;20895;-74
2023/12/21 06:00:40;;;;;;;10.82;2.55;;;;;;;9.31;100.00;99595.69;4778225;29;20428;-74
2023/12/21 06:03:06;;;;;;;6.28;3.03;;;;;;;9.27;100.00;99590.09;4778139;29;20085;-74
2023/12/21 06:05:32;;;;;;;7.18;2.25;;;;;;;9.28;100.00;99583.34;4775792;29;20110;-74
2023/12/21 06:07:58;;;;;;;6.38;2.15;;;;;;;9.26;100.00;99568.97;4774641;29;20043;-74
2023/12/21 06:10:23;;;;;;;6.43;2.25;;;;;;;9.26;100.00;99554.22;4772695;29;20039;-74
2023/12/21 06:12:48;;;;;;;10.73;2.40;;;;;;;9.27;100.00;99544.63;4775317;29;20482;-74
2023/12/21 06:15:14;;;;;;;3.22;1.88;;;;;;;9.24;100.00;99551.03;4760935;29;20035;-74
2023/12/21 06:17:39;;;;;;;9.68;2.85;;;;;;;9.26;100.00;99532.69;4780793;29;20050;-74
2023/12/21 06:20:06;;;;;;;10.07;3.65;;;;;;;9.23;100.00;99529.88;4776598;29;20491;-74
2023/12/21 06:22:31;;;;;;;7.65;2.83;;;;;;;9.24;100.00;99523.13;4776509;29;20583;-74
2023/12/21 06:24:57;;;;;;;7.70;2.47;;;;;;;9.29;100.00;99514.31;4793931;29;20040;-74
2023/12/21 06:27:22;;;;;;;12.05;3.00;;;;;;;9.26;100.00;99501.97;4763251;29;20476;-74
2023/12/21 06:29:47;;;;;;;3.03;1.90;;;;;;;9.19;100.00;99482.41;4781363;29;20635;-74
2023/12/21 06:32:13;;;;;;;7.75;3.10;;;;;;;9.30;100.00;99493.59;4779429;29;20433;-74
2023/12/21 06:34:38;;;;;;;9.05;2.10;;;;;;;9.30;100.00;99499.97;4779914;29;20118;-74
2023/12/21 06:37:04;;;;;;;9.77;2.78;;;;;;;9.31;100.00;99484.00;4776048;29;20067;-76
2023/12/21 06:39:31;;;;;;;7.65;2.78;;;;;;;9.32;100.00;99491.19;4793990;29;21511;-75
2023/12/21 06:41:56;;;;;;;8.57;2.38;;;;;;;9.33;100.00;99470.44;4777546;29;20042;-76
2023/12/21 06:44:21;;;;;;;5.13;2.17;;;;;;;9.34;100.00;99474.81;4793738;29;20035;-74
2023/12/21 06:46:47;;;;;;;3.50;1.83;;;;;;;9.34;100.00;99470.03;4787821;29;20584;-76
2023/12/21 06:49:12;;;;;;;9.93;1.98;;;;;;;9.35;100.00;99462.44;4796294;29;20161;-76
2023/12/21 06:51:37;;;;;;;2.70;1.45;;;;;;;9.80;100.00;99448.66;4801030;29;20043;-75
2023/12/21 06:54:04;;;;;;;9.90;2.22;;;;;;;9.97;100.00;99439.41;4782802;29;20499;-75
2023/12/21 06:56:29;;;;;;;7.68;1.75;;;;;;;9.67;100.00;99447.53;4791545;29;20100;-76
2023/12/21 06:58:54;;;;;;;4.18;1.95;;;;;;;9.59;100.00;99437.59;4785960;29;20080;-76
2023/12/21 07:01:26;;;;;;;6.35;1.67;;;;;;;9.47;100.00;99428.50;4797289;29;20515;-76
2023/12/21 07:03:52;;;;;;;8.32;1.50;;;;;;;9.42;100.00;99423.31;4805876;29;20058;-76
2023/12/21 07:34:09;;;;;;;4.75;1.85;;;;;;;9.26;100.00;99376.31;5137352;27;20398;-74
2023/12/21 07:36:34;;;;;;;4.68;2.60;;;;;;;9.27;100.00;99389.06;5142070;27;20509;-75
2023/12/21 07:38:59;;;;;;;6.72;3.03;;;;;;;9.30;100.00;99387.47;5135023;27;20039;-75
2023/12/21 07:41:25;;;;;;;5.43;1.90;;;;;;;9.72;100.00;99372.47;5132840;27;20047;-73
2023/12/21 07:43:50;;;;;;;7.15;3.28;;;;;;;9.42;100.00;99367.44;5139683;27;20095;-76
2023/12/21 07:46:15;;;;;;;11.95;2.55;;;;;;;9.38;100.00;99369.47;5137272;27;20033;-73
2023/12/21 07:48:41;;;;;;;4.22;2.40;;;;;;;9.33;100.00;99376.28;5138649;27;20023;-73
2023/12/21 07:51:09;;;;;;;13.77;2.50;;;;;;;9.35;100.00;99376.66;5137613;27;20026;-74
2023/12/21 07:53:34;;;;;;;4.43;2.40;;;;;;;9.33;100.00;99384.66;5147465;27;20031;-75
2023/12/21 07:56:00;;;;;;;12.23;2.60;;;;;;;9.28;100.00;99373.91;5142727;27;20543;-73
2023/12/21 07:58:25;;;;;;;7.90;2.00;;;;;;;9.32;100.00;99369.13;5138371;27;20018;-73
2023/12/21 08:00:51;;;;;;;4.13;1.90;;;;;;;9.30;100.00;99381.91;5132309;27;20031;-72
2023/12/21 08:03:16;;;;;;;5.35;2.13;;;;;;;9.30;100.00;99370.72;5140314;27;20034;-73
2023/12/21 08:05:42;;;;;;;7.03;2.22;;;;;;;9.32;100.00;99368.31;5142372;27;20026;-74
2023/12/21 08:08:07;;;;;;;7.45;1.95;;;;;;;9.31;100.00;99344.38;5140535;27;20026;-73
2023/12/21 08:10:32;;;;;;;10.85;2.33;;;;;;;9.33;100.00;99339.19;5133111;27;20031;-74
2023/12/21 08:13:00;;;;;;;6.90;2.35;;;;;;;9.37;100.00;99348.34;5137704;27;20149;-74
2023/12/21 08:15:26;;;;;;;4.35;1.95;;;;;;;9.32;100.00;99341.19;5129388;27;20027;-74
2023/12/21 08:17:55;;;;;;;11.43;2.30;;;;;;;9.32;100.00;99323.66;5136856;27;20051;-73
2023/12/21 08:20:22;;;;;;;11.45;2.65;;;;;;;9.35;100.00;99347.94;5137278;27;20022;-74
2023/12/21 08:22:47;;;;;;;1.92;1.73;;;;;;;9.33;100.00;99333.59;5143247;27;20087;-76
2023/12/21 08:25:12;;;;;;;6.72;2.38;;;;;;;9.37;100.00;99320.41;5137406;27;20023;-73
2023/12/21 08:27:41;;;;;;;5.03;2.40;;;;;;;9.36;100.00;99316.84;5137692;27;20691;-73
2023/12/21 08:30:07;;;;;;;8.73;2.20;;;;;;;9.40;100.00;99308.41;5136496;27;20089;-72
2023/12/21 08:32:32;;;;;;;7.82;2.30;;;;;;;9.38;100.00;99308.03;5130000;27;20038;-73
2023/12/21 08:34:58;;;;;;;5.03;2.40;;;;;;;9.42;100.00;99292.03;5123774;27;20031;-73
2023/12/21 08:37:23;;;;;;;5.50;1.98;;;;;;;9.46;100.00;99292.81;5133812;27;20027;-73
2023/12/21 08:39:49;;;;;;;6.70;2.97;;;;;;;9.50;100.00;99288.00;5119117;27;20111;-76
2023/12/21 08:42:14;;;;;;;4.95;2.63;;;;;;;9.52;100.00;99288.41;5129142;27;20107;-76
2023/12/21 08:44:40;;;;;;;6.72;1.85;;;;;;;9.53;100.00;99262.06;5123451;27;20046;-76
2023/12/21 08:47:05;;;;;;;6.18;1.50;;;;;;;9.55;100.00;99262.44;5123680;27;20032;-75
2023/12/21 08:49:31;;;;;;;5.43;2.13;;;;;;;9.56;100.00;99266.81;5128320;27;20106;-75
2023/12/21 08:51:57;;;;;;;5.47;2.15;;;;;;;9.61;100.00;99256.41;5122225;27;20019;-76
2023/12/21 08:54:22;;;;;;;6.32;1.77;;;;;;;9.56;100.00;99258.44;5123083;27;20143;-76
2023/12/21 08:56:50;;;;;;;8.15;3.20;;;;;;;9.57;100.00;99260.03;5131724;27;20027;-75
2023/12/21 08:59:16;;;;;;;8.73;2.35;;;;;;;9.60;100.00;99246.47;5122791;27;20425;-76
2023/12/21 09:01:41;;;;;;;5.55;1.98;;;;;;;9.59;100.00;99239.28;5134215;27;20048;-74
2023/12/21 09:04:06;;;;;;;8.50;3.17;;;;;;;9.62;100.00;99235.66;5123573;27;20432;-76
2023/12/21 09:06:32;;;;;;;11.38;3.35;;;;;;;9.61;100.00;99239.66;5131422;27;20034;-75
2023/12/21 09:08:58;;;;;;;5.85;2.33;;;;;;;9.62;100.00;99227.28;5124908;27;20024;-75
2023/12/21 09:11:25;;;;;;;8.57;2.13;;;;;;;9.68;100.00;99250.78;5120905;27;20032;-75
2023/12/21 09:13:50;;;;;;;6.50;2.22;;;;;;;9.66;100.00;99245.59;5116494;27;20639;-76
2023/12/21 09:16:17;;;;;;;7.72;1.80;;;;;;;9.67;100.00;99241.59;5128316;27;20038;-76
2023/12/21 09:18:46;;;;;;;4.93;2.08;;;;;;;9.67;100.00;99221.25;5119423;27;20464;-76
2023/12/21 09:21:11;;;;;;;9.15;2.45;;;;;;;9.73;100.00;99225.97;5116482;27;20027;-76
2023/12/21 09:23:38;;;;;;;5.40;1.85;;;;;;;9.74;100.00;99235.16;5121106;27;20026;-76
2023/12/21 09:26:03;;;;;;;6.18;2.00;;;;;;;9.70;100.00;99206.47;5122495;27;20411;-76
2023/12/21 09:28:28;;;;;;;10.25;2.13;;;;;;;9.74;100.00;99215.63;5120365;27;20028;-76
2023/12/21 09:30:55;;;;;;;3.40;1.25;;;;;;;9.72;100.00;99221.59;5116565;27;20676;-76
2023/12/21 09:33:20;;;;;;;8.75;1.70;;;;;;;9.73;100.00;99214.00;5117063;27;20772;-76
2023/12/21 09:35:46;;;;;;;8.32;1.73;;;;;;;9.79;100.00;99211.56;5124360;27;20061;-76
2023/12/21 09:38:11;;;;;;;5.57;1.90;;;;;;;9.84;100.00;99200.72;5119600;27;20038;-76
2023/12/21 09:40:36;;;;;;;11.23;1.77;;;;;;;9.84;100.00;99209.09;5117330;27;20058;-77
2023/12/21 09:43:05;;;;;;;6.57;2.00;;;;;;;9.80;100.00;99202.75;5118234;27;20054;-77
2023/12/21 09:45:32;;;;;;;11.55;2.33;;;;;;;9.83;100.00;99196.34;5121318;27;20035;-77
2023/12/21 09:47:58;;;;;;;14.63;2.83;;;;;;;9.78;100.00;99210.75;5118597;27;20760;-77
2023/12/21 09:50:25;;;;;;;8.88;2.78;;;;;;;9.88;100.00;99201.47;5118292;27;20330;-77
2023/12/21 09:52:51;;;;;;;8.80;2.25;;;;;;;9.88;100.00;99209.88;5119711;27;20062;-77
2023/12/21 09:55:19;;;;;;;7.47;1.55;;;;;;;9.93;100.00;99206.66;5119699;27;20023;-77
2023/12/21 09:57:46;;;;;;;9.55;2.08;;;;;;;9.92;100.00;99216.22;5126127;27;20360;-76
2023/12/21 10:00:12;;;;;;;8.55;2.03;;;;;;;10.00;100.00;99202.19;5120797;27;20499;-76
2023/12/21 10:02:37;;;;;;;6.75;1.38;;;;;;;10.02;100.00;99194.19;5115563;27;20119;-76
2023/12/21 10:05:03;;;;;;;4.63;0.90;;;;;;;10.08;100.00;99178.53;5117592;27;20121;-76
2023/12/21 10:07:30;;;;;;;11.02;2.97;;;;;;;10.09;100.00;99202.47;5121404;27;20030;-76
2023/12/21 10:09:57;;;;;;;12.23;3.30;;;;;;;10.20;100.00;99183.56;5116736;27;20163;-76
2023/12/21 10:12:23;;;;;;;4.93;1.30;;;;;;;10.14;100.00;99165.66;5116542;27;20027;-76
2023/12/21 10:15:03;;;;;;;5.13;1.30;;;;;;;10.15;100.00;99189.63;5116734;27;20054;-76
2023/12/21 10:17:31;;;;;;;6.00;2.05;;;;;;;10.17;100.00;99176.81;5114841;27;20058;-75
2023/12/21 10:19:57;;;;;;;8.20;1.48;;;;;;;10.18;100.00;99178.44;5120246;27;20499;-75
2023/12/21 10:22:22;;;;;;;9.48;1.73;;;;;;;10.24;100.00;99187.13;5122106;27;20047;-75
2023/12/21 10:24:50;;;;;;;7.90;1.55;;;;;;;10.15;100.00;99195.22;5120079;27;20450;-75
2023/12/21 10:27:16;;;;;;;6.15;1.50;;;;;;;10.34;100.00;99189.03;5116730;27;20031;-76
2023/12/21 10:29:41;;;;;;;19.27;2.60;;;;;;;10.33;100.00;99179.06;5120360;27;20288;-76
2023/12/21 10:32:08;;;;;;;12.30;2.65;;;;;;;10.25;100.00;99188.72;5109852;27;20438;-76
2023/12/21 10:34:36;;;;;;;8.65;1.63;;;;;;;10.28;100.00;99184.31;5124380;27;20062;-76
2023/12/21 10:37:01;;;;;;;4.75;1.10;;;;;;;10.23;100.00;99179.19;5119022;27;20076;-76
2023/12/21 10:39:27;;;;;;;4.93;1.25;;;;;;;10.25;100.00;99176.75;5122679;27;20622;-76
2023/12/21 10:41:56;;;;;;;6.43;1.58;;;;;;;10.28;100.00;99199.06;5132118;27;20027;-77
2023/12/21 10:44:21;;;;;;;4.95;1.63;;;;;;;10.26;100.00;99192.31;5114993;27;20520;-76
2023/12/21 10:46:47;;;;;;;5.30;1.70;;;;;;;10.26;100.00;99167.94;5117252;27;20034;-77
2023/12/21 10:49:14;;;;;;;11.85;2.28;;;;;;;10.23;100.00;99168.78;5121134;27;20036;-76
2023/12/21 10:51:43;;;;;;;7.35;1.35;;;;;;;10.26;100.00;99161.56;5120778;27;20404;-76
2023/12/21 10:54:14;;;;;;;6.93;1.77;;;;;;;10.52;100.00;99165.66;5121273;27;20031;-76
2023/12/21 10:56:44;;;;;;;3.92;1.38;;;;;;;10.58;100.00;99133.19;5110529;27;20770;-76
2023/12/21 10:59:11;;;;;;;6.82;1.52;;;;;;;10.52;100.00;99146.06;5113031;27;20027;-76
2023/12/21 11:01:37;;;;;;;8.38;2.03;;;;;;;10.49;100.00;99158.09;5116401;27;20360;-76
2023/12/21 11:04:04;;;;;;;7.20;1.75;;;;;;;10.37;100.00;99146.28;5115829;27;20031;-76
2023/12/21 11:06:31;;;;;;;5.80;1.42;;;;;;;10.37;100.00;99151.88;5117985;27;20142;-76
2023/12/21 11:08:58;;;;;;;9.73;1.92;;;;;;;10.32;100.00;99152.31;5117152;27;20095;-77
2023/12/21 11:11:25;;;;;;;3.95;1.02;;;;;;;10.25;100.00;99149.59;5116160;27;20027;-77
2023/12/21 11:13:57;;;;;;;12.98;2.25;;;;;;;10.31;100.00;99153.53;5119262;27;20027;-77
2023/12/21 11:16:29;;;;;;;9.23;2.33;;;;;;;10.24;100.00;99155.59;5113157;27;20382;-76
2023/12/21 11:18:56;;;;;;;8.48;2.33;;;;;;;10.21;100.00;99143.25;5114822;27;20052;-77
2023/12/21 11:21:24;;;;;;;10.10;1.75;;;;;;;10.21;100.00;99168.41;5117580;27;20034;-76
2023/12/21 11:23:50;;;;;;;10.18;1.80;;;;;;;10.17;100.00;99126.50;5115046;27;20027;-77
2023/12/21 11:26:27;;;;;;;4.80;1.70;;;;;;;10.25;100.00;99146.78;5131933;27;20113;-77
2023/12/21 11:29:06;;;;;;;12.07;2.15;;;;;;;10.22;100.00;99128.03;5115530;27;20028;-77
2023/12/21 11:31:39;;;;;;;9.27;2.53;;;;;;;10.22;100.00;99138.44;5118013;27;20552;-77
2023/12/21 11:34:15;;;;;;;22.75;2.97;;;;;;;10.26;100.00;99151.16;5112253;27;20572;-77
2023/12/21 11:36:41;;;;;;;12.15;2.20;;;;;;;10.25;100.00;99132.81;5112740;27;20447;-77
2023/12/21 11:39:12;;;;;;;8.43;2.42;;;;;;;10.29;100.00;99114.00;5119674;27;20496;-76
2023/12/21 11:41:58;;;;;;;7.20;2.03;;;;;;;10.33;100.00;99128.75;5118469;27;20114;-76
2023/12/21 11:44:33;;;;;;;6.20;1.83;;;;;;;10.36;100.00;99118.72;5106406;27;20562;-76
2023/12/21 11:47:02;;;;;;;8.35;1.83;;;;;;;10.40;100.00;99110.28;5113674;27;20023;-76
2023/12/21 11:49:27;;;;;;;6.03;1.40;;;;;;;10.42;100.00;99107.88;5107837;27;20072;-76
2023/12/21 11:51:52;;;;;;;6.95;1.90;;;;;;;10.37;100.00;99087.53;5114031;27;20031;-76
2023/12/21 11:54:22;;;;;;;9.80;1.42;;;;;;;10.38;100.00;99100.28;5113183;27;20045;-77
2023/12/21 11:56:52;;;;;;;9.25;1.75;;;;;;;10.41;100.00;99095.06;5116720;27;20492;-76
2023/12/21 11:59:21;;;;;;;6.70;2.08;;;;;;;10.37;100.00;99090.34;5113013;27;20052;-76
2023/12/21 12:01:47;;;;;;;7.78;1.67;;;;;;;10.35;100.00;99103.13;5119808;27;20116;-76
2023/12/21 12:04:14;;;;;;;8.85;2.00;;;;;;;10.27;100.00;99102.41;5117714;27;20445;-77
2023/12/21 12:06:39;;;;;;;7.82;2.05;;;;;;;10.26;100.00;99105.63;5117005;27;20019;-76
2023/12/21 12:09:06;;;;;;;6.88;2.00;;;;;;;10.26;100.00;99100.81;5119049;27;20050;-76
2023/12/21 12:11:32;;;;;;;7.97;1.55;;;;;;;10.37;100.00;99079.16;5118711;27;20027;-76
2023/12/21 12:14:01;;;;;;;10.13;1.90;;;;;;;10.35;100.00;99084.38;5119000;27;20019;-77
2023/12/21 12:16:26;;;;;;;10.68;2.33;;;;;;;10.34;100.00;99077.16;5118090;27;20031;-76
2023/12/21 12:18:54;;;;;;;18.13;2.42;;;;;;;10.25;100.00;99098.47;5119898;27;20158;-76
2023/12/21 12:21:20;;;;;;;8.00;1.73;;;;;;;10.20;100.00;99082.91;5117823;27;20367;-76
2023/12/21 12:23:48;;;;;;;7.22;2.78;;;;;;;10.23;100.00;99079.31;5120071;27;20106;-76
2023/12/21 12:26:15;;;;;;;6.63;2.65;;;;;;;10.29;100.00;99083.25;5121243;27;20118;-76
2023/12/21 12:28:40;;;;;;;8.85;2.20;;;;;;;10.35;100.00;99080.75;5122626;27;20048;-76
2023/12/21 12:31:06;;;;;;;13.43;2.50;;;;;;;10.37;100.00;99111.91;5121395;27;20035;-76
2023/12/21 12:33:33;;;;;;;15.13;2.38;;;;;;;10.42;100.00;99093.88;5120050;27;20100;-76
2023/12/21 12:36:03;;;;;;;13.57;2.75;;;;;;;10.37;100.00;99109.09;5137874;27;20114;-76
2023/12/21 12:38:29;;;;;;;6.28;1.98;;;;;;;10.33;100.00;99105.56;5116176;27;20474;-76
2023/12/21 12:40:55;;;;;;;11.70;2.58;;;;;;;10.28;100.00;99097.63;5120702;27;20035;-75
2023/12/21 12:43:20;;;;;;;10.13;2.63;;;;;;;10.33;100.00;99105.56;5117184;27;20027;-76
2023/12/21 12:45:45;;;;;;;13.77;2.72;;;;;;;10.31;100.00;99096.81;5118707;27;20038;-76
2023/12/21 12:48:12;;;;;;;15.10;2.60;;;;;;;10.28;100.00;99104.00;5121603;27;20058;-76
2023/12/21 12:50:38;;;;;;;13.50;2.40;;;;;;;10.31;100.00;99092.00;5120838;27;20035;-76
2023/12/21 12:53:03;;;;;;;11.27;3.85;;;;;;;10.28;100.00;99087.22;5122568;27;20027;-76
2023/12/21 12:55:28;;;;;;;13.43;2.30;;;;;;;10.29;100.00;99080.44;5120085;27;20157;-76
2023/12/21 12:57:55;;;;;;;14.25;2.90;;;;;;;10.30;100.00;99090.41;5113260;27;20057;-76
2023/12/21 13:00:21;;;;;;;14.73;2.83;;;;;;;10.45;100.00;99101.41;5121386;27;20491;-76
2023/12/21 13:02:47;;;;;;;11.90;2.45;;;;;;;10.38;100.00;99102.31;5113285;27;20020;-76
2023/12/21 13:05:15;;;;;;;27.48;3.97;;;;;;;10.34;100.00;99091.16;5123805;27;20038;-76
2023/12/21 13:07:42;;;;;;;21.25;5.10;;;;;;;10.40;100.00;99093.50;5116178;27;20031;-76
2023/12/21 13:10:09;;;;;;;15.45;3.65;;;;;;;10.34;100.00;99095.97;5121430;27;20443;-76
2023/12/21 13:12:34;;;;;;;9.63;2.22;;;;;;;10.27;100.00;99113.59;5117020;27;21409;-75
2023/12/21 13:15:00;;;;;;;10.95;3.05;;;;;;;10.32;100.00;99104.78;5125615;27;20027;-75
2023/12/21 13:17:25;;;;;;;11.55;2.67;;;;;;;10.40;100.00;99088.69;5115418;27;20026;-75
2023/12/21 13:19:51;;;;;;;13.25;2.83;;;;;;;10.37;100.00;99118.31;5115969;27;20466;-75
2023/12/21 13:22:16;;;;;;;10.85;2.38;;;;;;;10.36;100.00;99108.31;5122579;27;20383;-75
2023/12/21 13:24:41;;;;;;;11.35;2.85;;;;;;;10.32;100.00;99121.53;5117975;27;20039;-75
2023/12/21 13:27:07;;;;;;;10.90;2.53;;;;;;;10.28;100.00;99120.75;5120330;27;20475;-75
2023/12/21 13:29:33;;;;;;;17.73;3.22;;;;;;;10.27;100.00;99104.44;5118536;27;20541;-76
2023/12/21 13:32:00;;;;;;;17.42;2.13;;;;;;;10.28;100.00;99140.34;5121334;27;20058;-77
2023/12/21 13:34:26;;;;;;;15.35;2.88;;;;;;;10.37;100.00;99125.88;5127289;27;20035;-78
2023/12/21 13:36:53;;;;;;;18.98;3.85;;;;;;;10.31;100.00;99125.56;5127836;27;20056;-78
2023/12/21 13:39:19;;;;;;;21.38;4.63;;;;;;;10.29;100.00;99093.63;5139536;27;20080;-76
2023/12/21 13:41:44;;;;;;;11.77;2.63;;;;;;;10.25;100.00;99104.84;5135093;27;20026;-76
2023/12/21 13:44:09;;;;;;;10.02;2.40;;;;;;;10.30;100.00;99115.56;5128977;27;20494;-76
2023/12/21 13:46:35;;;;;;;18.08;3.53;;;;;;;10.30;100.00;99129.56;5120895;27;20122;-76
2023/12/21 13:49:00;;;;;;;19.23;3.65;;;;;;;10.30;100.00;99103.59;5129048;27;20033;-76
2023/12/21 13:51:26;;;;;;;10.07;2.95;;;;;;;10.32;100.00;99113.16;5124363;27;20026;-75
2023/12/21 13:53:51;;;;;;;14.23;3.38;;;;;;;10.23;100.00;99118.44;5119648;27;20023;-75
2023/12/21 13:56:16;;;;;;;11.55;2.25;;;;;;;10.26;100.00;99128.00;5123464;27;20035;-75
2023/12/21 13:58:42;;;;;;;13.32;3.17;;;;;;;10.29;100.00;99128.00;5121712;27;20031;-76
2023/12/21 14:01:07;;;;;;;11.27;3.08;;;;;;;10.27;100.00;99138.78;5121521;27;20478;-76
2023/12/21 14:03:33;;;;;;;16.75;3.20;;;;;;;10.30;100.00;99123.97;5124808;27;20096;-75
2023/12/21 14:05:58;;;;;;;16.08;2.72;;;;;;;10.27;100.00;99130.38;5126233;27;20110;-75
2023/12/21 14:08:24;;;;;;;10.80;2.50;;;;;;;10.23;100.00;99154.78;5124738;27;20026;-75
2023/12/21 14:10:50;;;;;;;10.82;2.80;;;;;;;10.27;100.00;99151.97;5120361;27;20035;-75
2023/12/21 14:13:15;;;;;;;12.15;2.97;;;;;;;10.21;100.00;99137.66;5129099;27;20018;-76
2023/12/21 14:15:41;;;;;;;14.07;3.05;;;;;;;10.21;100.00;99136.84;5120109;27;20155;-75
2023/12/21 14:18:06;;;;;;;11.38;2.90;;;;;;;10.13;100.00;99147.31;5131135;27;20039;-76
2023/12/21 14:20:32;;;;;;;15.07;3.40;;;;;;;10.15;100.00;99144.91;5126045;27;20112;-76
2023/12/21 14:22:57;;;;;;;17.50;3.15;;;;;;;10.13;100.00;99138.94;5119965;27;20023;-76
2023/12/21 14:25:23;;;;;;;15.00;3.63;;;;;;;10.10;100.00;99137.00;5116482;27;20128;-76
2023/12/21 14:27:48;;;;;;;20.70;3.72;;;;;;;10.15;100.00;99108.56;5121026;27;20042;-76
2023/12/21 14:30:14;;;;;;;19.23;5.00;;;;;;;10.05;100.00;99120.66;5121770;27;20027;-76
2023/12/21 14:32:39;;;;;;;15.18;3.78;;;;;;;10.06;100.00;99147.41;5121000;27;20453;-76
2023/12/21 14:35:05;;;;;;;14.10;2.88;;;;;;;10.07;100.00;99124.63;5122622;27;20528;-75
2023/12/21 14:37:30;;;;;;;16.88;2.88;;;;;;;10.09;100.00;99127.00;5123951;27;20058;-75
2023/12/21 14:39:57;;;;;;;18.63;4.60;;;;;;;10.03;100.00;99139.84;5117743;27;20477;-75
2023/12/21 14:42:22;;;;;;;21.73;4.32;;;;;;;9.98;100.00;99118.75;5115474;27;20781;-75
2023/12/21 14:44:52;;;;;;;19.67;3.00;;;;;;;9.94;100.00;99140.34;5121178;27;20039;-75
2023/12/21 14:47:18;;;;;;;12.68;3.05;;;;;;;9.98;100.00;99136.31;5123095;27;20038;-75
2023/12/21 14:49:43;;;;;;;18.63;4.00;;;;;;;9.97;100.00;99140.31;5125650;27;20500;-76
2023/12/21 14:52:08;;;;;;;17.73;3.25;;;;;;;9.95;100.00;99147.50;5125851;27;20031;-75
2023/12/21 14:54:36;;;;;;;19.58;4.32;;;;;;;9.97;100.00;99133.91;5121850;27;20054;-75
2023/12/21 14:57:02;;;;;;;20.67;5.40;;;;;;;10.00;100.00;99144.28;5116803;27;20031;-76
2023/12/21 14:59:27;;;;;;;20.70;4.10;;;;;;;9.97;100.00;99154.28;5119652;27;20094;-75
2023/12/21 15:01:53;;;;;;;18.63;3.60;;;;;;;9.95;100.00;99161.47;5123110;27;20039;-77
2023/12/21 15:04:18;;;;;;;17.50;3.42;;;;;;;9.87;100.00;99158.00;5119423;27;20080;-78
2023/12/21 15:06:44;;;;;;;19.35;4.65;;;;;;;9.81;100.00;99153.28;5121341;27;20027;-76
2023/12/21 15:09:10;;;;;;;18.70;2.65;;;;;;;9.76;100.00;99146.13;5119923;27;20023;-77
2023/12/21 15:11:35;;;;;;;14.00;3.75;;;;;;;9.75;100.00;99152.91;5124229;27;20038;-77
2023/12/21 15:14:01;;;;;;;10.38;2.67;;;;;;;9.76;100.00;99172.06;5117253;27;20237;-77
2023/12/21 15:16:27;;;;;;;17.48;4.35;;;;;;;9.76;100.00;99158.09;5113456;27;20072;-77
2023/12/21 15:18:53;;;;;;;20.95;3.65;;;;;;;9.72;100.00;99196.47;5114592;27;20031;-79
2023/12/21 15:21:18;;;;;;;11.10;2.75;;;;;;;9.56;100.00;99157.09;5121981;27;20117;-77
2023/12/21 15:23:44;;;;;;;14.15;2.45;;;;;;;9.43;100.00;99173.56;5122961;27;20110;-76
2023/12/21 15:26:13;;;;;;;15.90;3.00;;;;;;;9.31;100.00;99208.34;5114201;27;20056;-76
2023/12/21 15:28:38;;;;;;;13.30;2.88;;;;;;;9.05;100.00;99323.38;5115933;27;20419;-78
2023/12/21 15:31:05;;;;;;;8.75;1.83;;;;;;;8.21;100.00;99344.28;5120033;27;20091;-78
2023/12/21 15:33:31;;;;;;;7.55;1.83;;;;;;;7.88;100.00;99351.81;5119647;27;20062;-77
2023/12/21 15:35:57;;;;;;;5.38;1.75;;;;;;;7.53;100.00;99389.59;5122837;27;20050;-77
2023/12/21 15:38:23;;;;;;;6.80;3.40;;;;;;;7.26;100.00;99411.34;5126093;27;20055;-78
2023/12/21 15:40:49;;;;;;;4.93;0.85;;;;;;;7.34;100.00;99359.31;5117087;27;20058;-78
2023/12/21 15:43:15;;;;;;;5.05;1.38;;;;;;;7.57;100.00;99310.81;5122439;27;20071;-77
2023/12/21 15:45:43;;;;;;;7.25;1.38;;;;;;;7.41;100.00;99323.13;5127805;27;20496;-75
2023/12/21 15:48:09;;;;;;;5.72;1.92;;;;;;;7.33;100.00;99338.22;5126639;27;20085;-76
2023/12/21 15:50:34;;;;;;;10.70;2.08;;;;;;;7.58;100.00;99310.44;5132556;27;20487;-75
2023/12/21 15:52:59;;;;;;;6.63;2.33;;;;;;;7.54;100.00;99315.19;5122860;27;20379;-75
2023/12/21 15:55:26;;;;;;;5.38;2.00;;;;;;;7.46;100.00;99324.72;5124044;27;20498;-75
2023/12/21 15:57:51;;;;;;;2.63;1.00;;;;;;;7.54;100.00;99332.69;5133318;27;20446;-75
2023/12/21 16:00:17;;;;;;;10.52;1.45;;;;;;;7.25;100.00;99342.16;5120537;27;20026;-75
2023/12/21 16:02:43;;;;;;;8.18;1.95;;;;;;;7.27;100.00;99323.09;5132611;27;20507;-76
2023/12/21 16:05:09;;;;;;;5.88;1.90;;;;;;;7.37;100.00;99319.53;5125228;27;20030;-75
2023/12/21 16:07:34;;;;;;;16.38;1.77;;;;;;;7.29;100.00;99326.28;5126848;27;20027;-75
2023/12/21 16:09:59;;;;;;;12.48;2.28;;;;;;;7.44;100.00;99314.00;5124771;27;20029;-74
2023/12/21 16:12:25;;;;;;;18.38;2.22;;;;;;;7.41;100.00;99300.06;5124469;27;20028;-75
2023/12/21 16:14:50;;;;;;;8.10;1.88;;;;;;;7.46;100.00;99297.69;5126806;27;20088;-74
2023/12/21 16:17:20;;;;;;;12.38;3.03;;;;;;;7.42;100.00;99323.91;5130762;27;20035;-75
2023/12/21 16:19:47;;;;;;;11.98;2.53;;;;;;;7.23;100.00;99323.09;5122147;27;20031;-76
2023/12/21 16:22:13;;;;;;;14.55;2.33;;;;;;;7.38;100.00;99334.25;5123278;27;20024;-75
2023/12/21 16:24:38;;;;;;;17.00;3.65;;;;;;;7.39;100.00;99330.28;5124982;27;20059;-75
2023/12/21 16:27:06;;;;;;;11.35;2.38;;;;;;;7.59;100.00;99348.25;5122263;27;20057;-76
2023/12/21 16:29:32;;;;;;;9.27;2.30;;;;;;;7.54;100.00;99337.47;5122937;27;20031;-75
2023/12/21 16:31:57;;;;;;;10.68;2.78;;;;;;;7.66;100.00;99350.22;5129864;27;20415;-75
2023/12/21 16:34:23;;;;;;;11.80;2.60;;;;;;;7.64;100.00;99350.63;5124615;27;20097;-75
2023/12/21 16:36:48;;;;;;;11.63;4.35;;;;;;;7.58;100.00;99348.63;5124392;27;20066;-75
2023/12/21 16:39:14;;;;;;;10.25;2.45;;;;;;;7.70;100.00;99345.47;5123462;27;20038;-74
2023/12/21 16:41:40;;;;;;;12.75;3.08;;;;;;;7.72;100.00;99387.66;5129729;27;20031;-75
2023/12/21 16:44:05;;;;;;;10.40;3.03;;;;;;;7.71;100.00;99386.03;5123557;27;20019;-75
2023/12/21 16:46:31;;;;;;;15.18;3.85;;;;;;;7.71;100.00;99364.53;5120379;27;20029;-74
2023/12/21 16:48:56;;;;;;;11.85;3.03;;;;;;;7.78;100.00;99374.09;5134099;27;20544;-74
2023/12/21 16:51:21;;;;;;;12.13;2.72;;;;;;;7.59;100.00;99370.50;5128891;27;20043;-75
2023/12/21 16:53:47;;;;;;;17.67;3.30;;;;;;;7.62;100.00;99366.13;5130154;27;20094;-74
2023/12/21 16:56:12;;;;;;;21.88;3.80;;;;;;;7.67;100.00;99365.72;5124728;27;20031;-75
2023/12/21 16:58:38;;;;;;;15.43;4.18;;;;;;;7.69;100.00;99366.13;5124161;27;20040;-74
2023/12/21 17:01:04;;;;;;;18.38;3.13;;;;;;;7.64;100.00;99375.69;5125794;27;20508;-74
2023/12/21 17:03:30;;;;;;;16.33;4.10;;;;;;;7.61;100.00;99375.66;5127212;27;20452;-75
2023/12/21 17:05:55;;;;;;;16.25;3.40;;;;;;;7.69;100.00;99378.06;5123779;27;20365;-75
2023/12/21 17:08:21;;;;;;;20.88;4.10;;;;;;;7.65;100.00;99382.84;5124578;27;20029;-74
2023/12/21 17:10:46;;;;;;;12.98;3.38;;;;;;;7.72;100.00;99385.66;5119348;27;20114;-73
2023/12/21 17:13:12;;;;;;;19.88;4.05;;;;;;;7.61;100.00;99378.44;5121786;27;20054;-73
2023/12/21 17:15:37;;;;;;;16.98;3.67;;;;;;;7.72;100.00;99384.84;5122212;27;20047;-72
2023/12/21 17:18:03;;;;;;;12.52;4.82;;;;;;;7.77;100.00;99394.81;5116221;27;20053;-74
2023/12/21 17:20:30;;;;;;;31.65;5.90;;;;;;;7.68;100.00;99395.19;5120074;27;20098;-72
2023/12/21 17:22:58;;;;;;;18.88;2.65;;;;;;;7.66;100.00;99395.56;5123663;27;20023;-72
2023/12/21 17:25:24;;;;;;;21.13;4.35;;;;;;;7.76;100.00;99399.59;5117963;27;20035;-72
2023/12/21 17:27:50;;;;;;;16.42;4.93;;;;;;;7.63;100.00;99393.59;5118820;27;20054;-72
2023/12/21 17:30:17;;;;;;;21.98;4.05;;;;;;;7.72;100.00;99399.56;5115081;27;20027;-73
2023/12/21 17:32:42;;;;;;;14.63;4.85;;;;;;;7.81;100.00;99396.41;5122021;27;20047;-72
2023/12/21 17:35:08;;;;;;;21.00;3.70;;;;;;;7.83;100.00;99396.81;5122349;27;20027;-73